sensor_id;sensor_type;location;lat;lon;timestamp;P1;durP1;ratioP1;P2;durP2;ratioP2
31686;SDS011;18285;51.330;4.946;2023-03-12T00:17:00;7.93;;;5.10;;
31686;SDS011;18285;51.330;4.946;2023-03-12T01:05:22;8.27;;;3.80;;
31686;SDS011;18285;51.330;4.946;2023-03-12T01:29:33;5.28;;;3.60;;
31686;SDS011;18285;51.330;4.946;2023-03-12T01:53:44;4.88;;;3.33;;
31686;SDS011;18285;51.330;4.946;2023-03-12T02:17:57;4.68;;;3.40;;
31686;SDS011;18285;51.330;4.946;2023-03-12T02:42:08;5.50;;;3.00;;
31686;SDS011;18285;51.330;4.946;2023-03-12T03:06:19;4.20;;;2.70;;
31686;SDS011;18285;51.330;4.946;2023-03-12T03:54:40;3.00;;;2.13;;
31686;SDS011;18285;51.330;4.946;2023-03-12T04:18:51;3.73;;;2.20;;
31686;SDS011;18285;51.330;4.946;2023-03-12T04:43:01;2.80;;;2.13;;
31686;SDS011;18285;51.330;4.946;2023-03-12T05:07:12;2.67;;;1.80;;
31686;SDS011;18285;51.330;4.946;2023-03-12T05:31:24;4.10;;;1.73;;
31686;SDS011;18285;51.330;4.946;2023-03-12T05:55:37;2.90;;;1.50;;
31686;SDS011;18285;51.330;4.946;2023-03-12T06:19:51;1.50;;;1.05;;
31686;SDS011;18285;51.330;4.946;2023-03-12T06:44:02;1.77;;;1.20;;
31686;SDS011;18285;51.330;4.946;2023-03-12T07:08:15;1.80;;;1.20;;
31686;SDS011;18285;51.330;4.946;2023-03-12T07:32:27;2.10;;;1.30;;
31686;SDS011;18285;51.330;4.946;2023-03-12T07:56:38;2.53;;;1.80;;
31686;SDS011;18285;51.330;4.946;2023-03-12T08:20:49;3.20;;;1.90;;
31686;SDS011;18285;51.330;4.946;2023-03-12T08:45:02;5.85;;;1.73;;
31686;SDS011;18285;51.330;4.946;2023-03-12T09:09:13;4.50;;;2.03;;
31686;SDS011;18285;51.330;4.946;2023-03-12T09:33:24;6.30;;;3.20;;
31686;SDS011;18285;51.330;4.946;2023-03-12T09:57:34;10.00;;;3.20;;
31686;SDS011;18285;51.330;4.946;2023-03-12T10:21:48;9.77;;;3.00;;
31686;SDS011;18285;51.330;4.946;2023-03-12T11:10:56;9.45;;;3.90;;
31686;SDS011;18285;51.330;4.946;2023-03-12T11:35:10;8.15;;;3.63;;
31686;SDS011;18285;51.330;4.946;2023-03-12T11:59:27;9.00;;;4.10;;
31686;SDS011;18285;51.330;4.946;2023-03-12T12:24:26;11.30;;;6.05;;
31686;SDS011;18285;51.330;4.946;2023-03-12T12:49:00;17.57;;;6.53;;
31686;SDS011;18285;51.330;4.946;2023-03-12T13:13:23;15.43;;;6.53;;
31686;SDS011;18285;51.330;4.946;2023-03-12T14:02:12;16.35;;;6.18;;
31686;SDS011;18285;51.330;4.946;2023-03-12T14:26:37;14.32;;;5.40;;
31686;SDS011;18285;51.330;4.946;2023-03-12T14:50:51;11.23;;;5.03;;
31686;SDS011;18285;51.330;4.946;2023-03-12T15:15:08;10.60;;;4.90;;
31686;SDS011;18285;51.330;4.946;2023-03-12T15:39:27;12.88;;;5.00;;
31686;SDS011;18285;51.330;4.946;2023-03-12T16:03:41;13.30;;;4.63;;
31686;SDS011;18285;51.330;4.946;2023-03-12T16:27:55;17.85;;;4.85;;
31686;SDS011;18285;51.330;4.946;2023-03-12T17:16:27;19.52;;;5.63;;
31686;SDS011;18285;51.330;4.946;2023-03-12T17:40:41;16.77;;;5.73;;
31686;SDS011;18285;51.330;4.946;2023-03-12T18:04:53;25.15;;;5.43;;
31686;SDS011;18285;51.330;4.946;2023-03-12T18:29:03;19.47;;;6.20;;
31686;SDS011;18285;51.330;4.946;2023-03-12T18:53:14;22.90;;;10.00;;
31686;SDS011;18285;51.330;4.946;2023-03-12T19:17:25;24.83;;;8.93;;
31686;SDS011;18285;51.330;4.946;2023-03-12T19:41:37;23.52;;;8.18;;
31686;SDS011;18285;51.330;4.946;2023-03-12T20:05:49;16.08;;;7.82;;
31686;SDS011;18285;51.330;4.946;2023-03-12T20:30:00;12.10;;;6.93;;
31686;SDS011;18285;51.330;4.946;2023-03-12T20:54:12;21.42;;;8.10;;
31686;SDS011;18285;51.330;4.946;2023-03-12T21:18:23;18.33;;;6.88;;
31686;SDS011;18285;51.330;4.946;2023-03-12T21:42:34;12.45;;;5.68;;
31686;SDS011;18285;51.330;4.946;2023-03-12T22:06:44;9.73;;;4.68;;
31686;SDS011;18285;51.330;4.946;2023-03-12T22:30:56;8.77;;;4.40;;
31686;SDS011;18285;51.330;4.946;2023-03-12T22:55:08;8.63;;;3.95;;
31686;SDS011;18285;51.330;4.946;2023-03-12T23:19:19;8.32;;;3.80;;
31686;SDS011;18285;51.330;4.946;2023-03-12T23:43:29;11.10;;;3.80;;
